Terminal Aerodrome Forecast
Issued by NWS Jackson, MS

Home | Current Version | Previous Version | Text Only | Print | Product List | Glossary On
Versions: 1 2 3 4 5 6 7 8 9 10 11 12 13 14 15 16 17 18 19 20 21 22
000
FTUS44 KJAN 281700
TAFGLH
TAF
KGLH 281728Z 2818/0118 05010KT P6SM FEW120
     FM282100 03007KT P6SM OVC100
     FM010900 04004KT P6SM OVC022
     FM011100 07004KT P6SM VCSH OVC015
     FM011400 08007KT 5SM -SHRA OVC007=

USA.gov is the U.S. government's official web portal to all federal, state and local government web resources and services.